Tipton, IN

6:17 PM EDT on August 30, 2014 (GMT -0400)
Indianapolis Terry | Change Station
CLOSE
Current Station
Airport
Location: Indianapolis,
Elevation: 922 ft
Nearby Weather Stations

Elev 922 ft 40.03 °N, 86.25 °W | Updated 22 minutes ago

Scattered Clouds
Scattered Clouds
78 °F
Feels Like 78 °F
N
14
Wind Variable Wind from SSW
Gusts 21 mph

Today
High -- | Low -- °F
--% Chance of Precip.
Yesterday
High -- | Low -- °F
Precip. -- in
7:09 AM 8:19 PM
Waxing Crescent, 25% visible
Pressure 29.97 in
Visibility 10.0 miles
Clouds Scattered Clouds 2300 ft
Dew Point 68 °F
Humidity 71%
Rainfall 0.00 in
Snow Depth Not available.
UV 2 out of 12
Pollen 9.30 out of 12
Air Quality Not available.
Flu Activity Not available.
METAR KTYQ 302155Z AUTO 20012G18KT 10SM SCT023 26/20 A2997 RMK AO2 T02570201

More Conditions Fewer Conditions

Pressure 29.97 in
Visibility 10.0 miles
Clouds Scattered Clouds 2300 ft
Dew Point 68 °F
Humidity 71%
Rainfall 0.00 in
Snow Depth Not available.
UV 2 out of 12
Pollen 9.30 out of 12
Air Quality Not available.
Flu Activity Not available.
METAR KTYQ 302155Z AUTO 20012G18KT 10SM SCT023 26/20 A2997 RMK AO2 T02570201

More Conditions Fewer Conditions

10-Day Weather Forecast

Almanac

Astronomy

Aug. 30, 2014 Rise Set
Actual Time 7:09 AM EDT 8:19 PM EDT
Civil Twilight 6:41 AM EDT 8:47 PM EDT
Nautical Twilight 6:08 AM EDT 9:20 PM EDT
Astronomical Twilight 5:33 AM EDT 9:55 PM EDT
Moon 11:57 AM EDT 10:52 PM EDT
Length of Visible Light 14h 05m
Length of Day
13h 09m
Tomorrow will be 2m 33s shorter.
Waxing Crescent, 25% of the Moon is Illuminated
Today
Waxing Crescent
Sep 2
First Quarter
Sep 8
Full
Sep 15
Last Quarter
Sep 24
New

Today's Extremes

State Highs State Lows

Community

WunderPhotos

Upload Photos

1,748,657 photos uploaded!

WunderBlogs® & News

Nearby

Snow Depth

Station Depth Elevation
No new snow has been reported.

Earthquake Activity

City Distance Mag. Time & Date
No recent earthquake activity has been reported nearby.
Minimum magnitude displayed is 2.5.

Coastal Water Temperatures

Place Temperature
No Stations Reporting

Nearby Weather Stations